createdAt,value
2019-04-01T00:01:57.321Z,40.20
2019-04-01T00:04:23.571Z,40.20
2019-04-01T00:06:50.299Z,40.10
2019-04-01T00:09:16.379Z,40.20
2019-04-01T00:14:09.387Z,40.20
2019-04-01T00:19:03.438Z,40.20
2019-04-01T00:21:29.865Z,40.20
2019-04-01T00:23:55.997Z,40.20
2019-04-01T00:28:48.948Z,40.20
2019-04-01T00:31:15.039Z,40.20
2019-04-01T00:33:41.143Z,40.20
2019-04-01T00:36:07.487Z,40.30
2019-04-01T00:38:33.544Z,40.20
2019-04-01T00:43:39.995Z,40.20
2019-04-01T00:46:06.247Z,40.20
2019-04-01T00:50:58.814Z,40.20
2019-04-01T00:53:24.892Z,40.30
2019-04-01T00:55:50.983Z,40.20
2019-04-01T00:58:17.072Z,40.20
2019-04-01T01:03:09.950Z,40.20
2019-04-01T01:05:36.031Z,40.20
2019-04-01T01:08:02.084Z,40.20
2019-04-01T01:10:28.169Z,40.30
2019-04-01T01:15:20.985Z,40.20
2019-04-01T01:17:47.068Z,40.20
2019-04-01T01:20:14.024Z,40.20
2019-04-01T01:22:40.477Z,40.30
2019-04-01T01:25:07.060Z,40.20
2019-04-01T01:27:33.134Z,40.30
2019-04-01T01:29:59.217Z,40.20
2019-04-01T01:32:25.300Z,40.30
2019-04-01T01:34:51.344Z,40.20
2019-04-01T01:37:17.427Z,40.20
2019-04-01T01:39:43.484Z,40.20
2019-04-01T01:42:09.564Z,40.20
2019-04-01T01:44:35.883Z,40.20
2019-04-01T01:47:02.069Z,40.10
2019-04-01T01:49:28.439Z,40.20
2019-04-01T01:54:20.957Z,40.20
2019-04-01T01:56:47.244Z,40.20
2019-04-01T02:01:39.735Z,40.20
2019-04-01T02:04:06.118Z,40.20
2019-04-01T02:06:32.202Z,40.20
2019-04-01T02:11:24.665Z,40.20
2019-04-01T02:13:50.749Z,40.20
2019-04-01T02:16:16.799Z,40.20
2019-04-01T02:21:09.911Z,40.10
2019-04-01T02:28:29.541Z,40.20
2019-04-01T02:30:55.946Z,40.20
2019-04-01T02:33:22.278Z,40.20
2019-04-01T02:35:48.325Z,40.20
2019-04-01T02:38:14.408Z,40.20
2019-04-01T02:40:40.452Z,40.20
2019-04-01T02:50:25.794Z,40.20
2019-04-01T02:52:51.880Z,40.20
2019-04-01T02:55:17.924Z,40.20
2019-04-01T02:57:43.973Z,40.20
2019-04-01T03:00:10.657Z,40.20
2019-04-01T03:02:36.765Z,40.20
2019-04-01T03:05:04.552Z,40.20
2019-04-01T03:07:30.597Z,40.20
2019-04-01T03:12:23.385Z,40.20
2019-04-01T03:14:49.530Z,40.20
2019-04-01T03:19:42.037Z,40.20
2019-04-01T03:22:08.137Z,40.20
2019-04-01T03:24:34.511Z,40.20
2019-04-01T03:27:01.019Z,40.20
2019-04-01T03:29:27.123Z,40.20
2019-04-01T03:31:53.474Z,40.20
2019-04-01T03:34:19.910Z,40.20
2019-04-01T03:39:12.532Z,40.20
2019-04-01T03:41:39.413Z,40.20
2019-04-01T03:44:05.491Z,40.20
2019-04-01T03:46:31.869Z,40.20
2019-04-01T03:48:58.195Z,40.20
2019-04-01T03:51:24.245Z,40.20
2019-04-01T03:53:50.551Z,40.10
2019-04-01T03:56:16.668Z,40.20
2019-04-01T03:58:42.795Z,40.20
2019-04-01T04:01:08.839Z,40.20
2019-04-01T04:03:35.253Z,40.10
2019-04-01T04:06:02.506Z,40.10
2019-04-01T04:08:28.588Z,40.10
2019-04-01T04:10:55.119Z,40.10
2019-04-01T04:13:21.506Z,40.10
2019-04-01T04:15:47.566Z,40.00
2019-04-01T04:18:13.654Z,40.10
2019-04-01T04:20:40.084Z,40.10
2019-04-01T04:23:06.135Z,40.10
2019-04-01T04:27:58.638Z,40.10
2019-04-01T04:30:24.712Z,40.10
2019-04-01T04:32:50.840Z,40.10
2019-04-01T04:35:16.880Z,40.20
2019-04-01T04:37:43.049Z,40.10
2019-04-01T04:40:10.867Z,40.10
2019-04-01T04:42:37.367Z,40.20
2019-04-01T04:45:05.624Z,40.10
2019-04-01T04:47:31.672Z,40.20
2019-04-01T04:49:57.843Z,40.10
2019-04-01T04:52:24.803Z,40.20
2019-04-01T04:57:20.218Z,40.20
2019-04-01T04:59:45.274Z,40.20
2019-04-01T05:02:11.443Z,40.20
2019-04-01T05:04:37.811Z,40.10
2019-04-01T05:07:04.230Z,40.20
2019-04-01T05:09:30.279Z,40.20
2019-04-01T05:11:56.328Z,40.10
2019-04-01T05:16:49.340Z,40.20
2019-04-01T05:19:15.419Z,40.20
2019-04-01T05:21:43.006Z,40.20
2019-04-01T05:24:10.356Z,40.10
2019-04-01T05:26:38.174Z,40.20
2019-04-01T05:31:33.631Z,40.20
2019-04-01T05:34:21.970Z,40.20
2019-04-01T05:36:48.371Z,40.10
2019-04-01T05:39:15.234Z,40.10
2019-04-01T05:41:42.219Z,40.20
2019-04-01T05:44:08.472Z,40.20
2019-04-01T05:46:34.561Z,40.20
2019-04-01T05:49:00.608Z,40.20
2019-04-01T05:51:28.273Z,40.20
2019-04-01T05:53:54.424Z,40.40
2019-04-01T05:56:21.804Z,40.40
2019-04-01T06:01:18.728Z,40.50
2019-04-01T06:03:44.775Z,40.50
2019-04-01T06:06:10.823Z,40.50
2019-04-01T06:08:38.118Z,40.50
2019-04-01T06:11:04.166Z,40.50
2019-04-01T06:13:31.279Z,40.40
2019-04-01T06:18:24.795Z,40.20
2019-04-01T06:23:18.573Z,40.10
2019-04-01T06:25:45.475Z,40.00
2019-04-01T06:30:38.519Z,39.90
2019-04-01T06:33:04.888Z,39.90
2019-04-01T06:37:57.699Z,39.70
2019-04-01T06:42:50.435Z,39.40
2019-04-01T06:45:16.528Z,39.20
2019-04-01T06:50:10.939Z,39.10
2019-04-01T06:52:37.021Z,39.20
2019-04-01T06:55:05.604Z,39.40
2019-04-01T06:59:58.821Z,39.50
2019-04-01T07:02:25.004Z,39.60
2019-04-01T07:07:19.180Z,39.80
2019-04-01T07:09:45.451Z,39.90
2019-04-01T07:14:38.752Z,40.00
2019-04-01T07:17:04.796Z,40.10
2019-04-01T07:21:57.552Z,40.30
2019-04-01T07:24:23.599Z,40.20
2019-04-01T07:26:49.796Z,40.20
2019-04-01T07:29:16.924Z,40.20
2019-04-01T07:31:43.025Z,40.30
2019-04-01T07:34:09.503Z,40.30
2019-04-01T07:36:35.631Z,40.30
2019-04-01T07:39:04.271Z,40.20
2019-04-01T07:43:56.836Z,40.30
2019-04-01T07:46:22.919Z,40.40
2019-04-01T07:48:50.269Z,40.40
2019-04-01T07:51:16.321Z,40.30
2019-04-01T07:56:09.540Z,40.30
2019-04-01T08:03:30.053Z,40.20
2019-04-01T08:08:23.252Z,40.30
2019-04-01T08:10:49.756Z,40.30
2019-04-01T08:15:42.581Z,40.40
2019-04-01T08:18:09.775Z,40.40
2019-04-01T08:20:36.171Z,40.40
2019-04-01T08:23:02.392Z,40.40
2019-04-01T08:25:28.762Z,40.50
2019-04-01T08:27:55.207Z,40.40
2019-04-01T08:30:21.293Z,40.50
2019-04-01T08:32:47.340Z,40.60
2019-04-01T08:35:13.778Z,40.70
2019-04-01T08:40:09.375Z,40.70
2019-04-01T08:45:08.618Z,40.90
2019-04-01T08:47:35.044Z,40.90
2019-04-01T08:50:04.231Z,40.90
2019-04-01T08:57:23.148Z,41.00
2019-04-01T08:59:49.461Z,41.00
2019-04-01T09:02:18.583Z,41.10
2019-04-01T09:04:45.191Z,41.10
2019-04-01T09:07:11.236Z,41.10
2019-04-01T09:09:39.916Z,41.10
2019-04-01T09:14:34.785Z,41.10
2019-04-01T09:17:02.676Z,41.10
2019-04-01T09:19:29.005Z,41.10
2019-04-01T09:24:21.464Z,41.10
2019-04-01T09:26:47.544Z,41.20
2019-04-01T09:29:13.917Z,41.20
2019-04-01T09:31:39.968Z,41.30
2019-04-01T09:34:06.048Z,41.20
2019-04-01T09:36:32.400Z,41.20
2019-04-01T09:41:25.280Z,41.20
2019-04-01T09:43:51.359Z,41.30
2019-04-01T09:46:17.407Z,41.20
2019-04-01T09:48:43.461Z,41.30
2019-04-01T09:51:09.540Z,41.30
2019-04-01T09:53:35.591Z,41.30
2019-04-01T09:56:02.008Z,41.40
2019-04-01T09:58:28.060Z,41.40
2019-04-01T10:00:54.121Z,41.40
2019-04-01T10:05:46.949Z,41.40
2019-04-01T10:08:13.059Z,41.40
2019-04-01T10:10:39.112Z,41.50
2019-04-01T10:13:05.180Z,41.50
2019-04-01T10:15:31.269Z,41.40
2019-04-01T10:17:57.307Z,41.50
2019-04-01T10:25:16.252Z,41.40
2019-04-01T10:27:42.299Z,41.50
2019-04-01T10:30:10.623Z,41.40
2019-04-01T10:32:36.956Z,41.50
2019-04-01T10:35:07.283Z,41.50
2019-04-01T10:42:27.749Z,41.60
2019-04-01T10:44:53.828Z,41.50
2019-04-01T10:49:46.631Z,41.50
2019-04-01T10:52:12.756Z,41.50
2019-04-01T10:54:39.161Z,41.50
2019-04-01T10:57:05.271Z,41.50
2019-04-01T10:59:31.785Z,41.50
2019-04-01T11:01:58.003Z,41.50
2019-04-01T11:04:24.134Z,41.50
2019-04-01T11:06:50.337Z,41.50
2019-04-01T11:09:16.642Z,41.50
2019-04-01T11:11:43.016Z,41.60
2019-04-01T11:16:35.517Z,41.50
2019-04-01T11:21:28.016Z,41.50
2019-04-01T11:23:54.062Z,41.50
2019-04-01T11:26:20.411Z,41.60
2019-04-01T11:28:46.741Z,41.50
2019-04-01T11:31:12.788Z,41.60
2019-04-01T11:33:39.007Z,41.60
2019-04-01T11:36:05.161Z,41.60
2019-04-01T11:40:58.301Z,41.60
2019-04-01T11:43:24.461Z,41.60
2019-04-01T11:45:50.631Z,41.50
2019-04-01T11:48:16.787Z,41.50
2019-04-01T11:50:42.967Z,41.60
2019-04-01T11:53:09.076Z,41.60
2019-04-01T11:55:35.375Z,41.60
2019-04-01T12:02:54.564Z,41.50
2019-04-01T12:05:21.753Z,41.50
2019-04-01T12:10:15.113Z,41.50
2019-04-01T12:15:12.316Z,41.40
2019-04-01T12:20:09.432Z,41.40
2019-04-01T12:22:36.024Z,41.40
2019-04-01T12:25:05.976Z,41.40
2019-04-01T12:29:58.485Z,41.40
2019-04-01T12:32:24.834Z,41.40
2019-04-01T12:34:51.693Z,41.50
2019-04-01T12:37:17.777Z,41.50
2019-04-01T12:39:43.960Z,41.50
2019-04-01T12:42:10.032Z,41.40
2019-04-01T12:44:36.485Z,41.40
2019-04-01T12:49:29.989Z,41.50
2019-04-01T12:51:58.381Z,41.50
2019-04-01T12:54:24.361Z,41.40
2019-04-01T12:59:16.867Z,41.40
2019-04-01T13:01:43.262Z,41.40
2019-04-01T13:04:09.396Z,41.30
2019-04-01T13:06:35.471Z,41.30
2019-04-01T13:09:01.555Z,41.30
2019-04-01T13:13:54.067Z,41.30
2019-04-01T13:16:20.125Z,41.30
2019-04-01T13:18:47.406Z,41.30
2019-04-01T13:21:14.396Z,41.30
2019-04-01T13:23:40.449Z,41.30
2019-04-01T13:26:06.541Z,41.30
2019-04-01T13:30:59.040Z,41.20
2019-04-01T13:33:25.096Z,41.30
2019-04-01T13:35:52.692Z,41.30
2019-04-01T13:38:19.200Z,41.30
2019-04-01T13:43:12.539Z,41.30
2019-04-01T13:45:40.383Z,41.30
2019-04-01T13:48:06.434Z,41.30
2019-04-01T13:50:32.634Z,41.30
2019-04-01T13:52:59.800Z,41.30
2019-04-01T13:55:25.919Z,41.30
2019-04-01T14:00:20.448Z,41.20
2019-04-01T14:02:47.940Z,41.20
2019-04-01T14:05:14.984Z,41.30
2019-04-01T14:07:41.441Z,41.30
2019-04-01T14:12:35.209Z,41.30
2019-04-01T14:15:05.665Z,41.30
2019-04-01T14:17:32.013Z,41.30
2019-04-01T14:19:58.396Z,41.20
2019-04-01T14:22:24.456Z,41.20
2019-04-01T14:24:50.857Z,41.30
2019-04-01T14:27:17.285Z,41.20
2019-04-01T14:29:43.616Z,41.20
2019-04-01T14:32:10.058Z,41.20
2019-04-01T14:34:36.372Z,41.10
2019-04-01T14:39:34.602Z,41.20
2019-04-01T14:41:58.816Z,41.20
2019-04-01T14:44:25.175Z,41.20
2019-04-01T14:46:51.294Z,41.20
2019-04-01T14:49:17.396Z,41.10
2019-04-01T14:51:43.543Z,41.10
2019-04-01T14:54:09.660Z,41.20
2019-04-01T15:01:30.188Z,41.20
2019-04-01T15:03:56.606Z,41.20
2019-04-01T15:06:22.717Z,41.20
2019-04-01T15:11:15.508Z,41.10
2019-04-01T15:13:41.853Z,41.00
2019-04-01T15:16:08.187Z,41.00
2019-04-01T15:18:34.633Z,41.10
2019-04-01T15:21:00.943Z,41.10
2019-04-01T15:23:27.486Z,41.10
2019-04-01T15:25:54.721Z,41.10
2019-04-01T15:28:21.284Z,41.10
2019-04-01T15:33:14.216Z,41.10
2019-04-01T15:35:40.324Z,40.90
2019-04-01T15:40:33.488Z,40.80
2019-04-01T15:42:59.579Z,40.80
2019-04-01T15:47:52.110Z,40.90
2019-04-01T15:55:13.658Z,40.90
2019-04-01T16:00:09.799Z,40.90
2019-04-01T16:02:36.243Z,40.90
2019-04-01T16:05:06.051Z,40.90
2019-04-01T16:07:33.105Z,40.90
2019-04-01T16:09:59.422Z,40.90
2019-04-01T16:14:52.494Z,40.90
2019-04-01T16:17:19.025Z,40.90
2019-04-01T16:19:45.082Z,40.90
2019-04-01T16:22:11.197Z,40.90
2019-04-01T16:24:37.497Z,40.90
2019-04-01T16:27:03.548Z,40.90
2019-04-01T16:29:31.103Z,40.90
2019-04-01T16:31:57.857Z,40.90
2019-04-01T16:34:24.902Z,40.90
2019-04-01T16:36:51.031Z,40.90
2019-04-01T16:39:17.158Z,40.90
2019-04-01T16:41:43.268Z,40.90
2019-04-01T16:44:09.317Z,40.80
2019-04-01T16:46:35.427Z,40.90
2019-04-01T16:49:01.481Z,40.90
2019-04-01T16:51:27.851Z,40.90
2019-04-01T16:53:56.047Z,40.90
2019-04-01T16:56:22.245Z,40.90
2019-04-01T16:58:49.152Z,40.90
2019-04-01T17:01:15.523Z,40.90
2019-04-01T17:03:41.641Z,40.90
2019-04-01T17:08:34.607Z,40.90
2019-04-01T17:11:01.326Z,40.90
2019-04-01T17:13:28.772Z,40.90
2019-04-01T17:15:54.885Z,40.90
2019-04-01T17:18:20.928Z,40.90
2019-04-01T17:20:47.389Z,40.90
2019-04-01T17:23:13.436Z,40.90
2019-04-01T17:25:39.839Z,40.90
2019-04-01T17:30:32.409Z,40.80
2019-04-01T17:33:00.514Z,40.80
2019-04-01T17:35:26.559Z,40.80
2019-04-01T17:37:52.677Z,40.70
2019-04-01T17:45:23.383Z,41.10
2019-04-01T17:50:16.335Z,41.60
2019-04-01T17:55:08.860Z,41.50
2019-04-01T17:57:34.908Z,41.70
2019-04-01T18:02:30.538Z,41.70
2019-04-01T18:04:56.893Z,41.80
2019-04-01T18:07:24.575Z,41.80
2019-04-01T18:09:50.963Z,42.00
2019-04-01T18:12:17.417Z,41.80
2019-04-01T18:14:43.462Z,41.80
2019-04-01T18:17:09.885Z,41.90
2019-04-01T18:19:36.277Z,41.90
2019-04-01T18:22:03.448Z,41.90
2019-04-01T18:24:29.559Z,42.00
2019-04-01T18:26:55.612Z,41.90
2019-04-01T18:29:22.746Z,42.00
2019-04-01T18:31:48.804Z,42.00
2019-04-01T18:34:14.843Z,42.00
2019-04-01T18:36:41.452Z,42.10
2019-04-01T18:39:07.627Z,42.10
2019-04-01T18:41:34.070Z,42.00
2019-04-01T18:44:00.436Z,42.00
2019-04-01T18:48:52.959Z,42.00
2019-04-01T18:51:20.458Z,42.10
2019-04-01T18:53:47.112Z,42.10
2019-04-01T18:56:13.260Z,42.20
2019-04-01T18:58:39.641Z,42.20
2019-04-01T19:01:06.056Z,42.20
2019-04-01T19:03:32.184Z,42.30
2019-04-01T19:05:58.228Z,42.30
2019-04-01T19:08:24.353Z,42.30
2019-04-01T19:11:01.750Z,42.30
2019-04-01T19:13:18.947Z,42.40
2019-04-01T19:18:14.881Z,42.40
2019-04-01T19:20:55.382Z,42.40
2019-04-01T19:25:35.697Z,42.40
2019-04-01T19:30:28.268Z,42.40
2019-04-01T19:32:54.873Z,42.40
2019-04-01T19:35:21.228Z,42.50
2019-04-01T19:37:47.348Z,42.50
2019-04-01T19:40:15.011Z,42.50
2019-04-01T19:42:41.059Z,42.50
2019-04-01T19:45:12.001Z,42.50
2019-04-01T19:50:07.590Z,42.60
2019-04-01T19:52:33.704Z,42.70
2019-04-01T19:54:59.823Z,42.70
2019-04-01T19:57:27.927Z,42.60
2019-04-01T19:59:54.459Z,42.50
2019-04-01T20:02:21.074Z,42.50
2019-04-01T20:04:48.100Z,42.50
2019-04-01T20:07:14.152Z,42.40
2019-04-01T20:09:40.496Z,42.40
2019-04-01T20:12:06.941Z,42.40
2019-04-01T20:14:33.099Z,42.40
2019-04-01T20:17:01.943Z,42.40
2019-04-01T20:19:27.435Z,42.40
2019-04-01T20:21:53.784Z,42.30
2019-04-01T20:26:47.368Z,42.30
2019-04-01T20:29:13.838Z,42.30
2019-04-01T20:31:40.228Z,42.30
2019-04-01T20:34:18.820Z,42.30
2019-04-01T20:39:00.707Z,42.30
2019-04-01T20:41:26.872Z,42.30
2019-04-01T20:43:52.924Z,42.30
2019-04-01T20:46:19.335Z,42.30
2019-04-01T20:48:45.669Z,42.20
2019-04-01T20:51:12.096Z,42.20
2019-04-01T20:53:38.425Z,42.10
2019-04-01T20:56:04.608Z,42.20
2019-04-01T21:00:57.416Z,42.10
2019-04-01T21:03:23.476Z,42.10
2019-04-01T21:05:49.528Z,42.00
2019-04-01T21:08:16.387Z,42.00
2019-04-01T21:13:10.936Z,41.70
2019-04-01T21:15:37.339Z,41.70
2019-04-01T21:18:03.398Z,41.70
2019-04-01T21:20:29.480Z,41.70
2019-04-01T21:22:55.536Z,41.70
2019-04-01T21:25:21.616Z,41.60
2019-04-01T21:35:09.754Z,41.50
2019-04-01T21:37:36.167Z,41.50
2019-04-01T21:40:05.256Z,41.40
2019-04-01T21:42:31.336Z,41.40
2019-04-01T21:44:57.384Z,41.30
2019-04-01T21:52:16.328Z,41.30
2019-04-01T21:59:35.257Z,41.20
2019-04-01T22:02:04.152Z,41.20
2019-04-01T22:04:30.495Z,41.10
2019-04-01T22:06:56.820Z,41.20
2019-04-01T22:11:49.913Z,41.20
2019-04-01T22:14:16.328Z,41.20
2019-04-01T22:16:42.422Z,41.20
2019-04-01T22:19:08.500Z,41.20
2019-04-01T22:21:34.708Z,41.20
2019-04-01T22:24:01.666Z,41.20
2019-04-01T22:26:28.061Z,41.20
2019-04-01T22:28:55.154Z,41.10
2019-04-01T22:31:21.261Z,41.10
2019-04-01T22:33:47.299Z,41.10
2019-04-01T22:36:13.425Z,41.10
2019-04-01T22:38:39.471Z,41.10
2019-04-01T22:41:05.594Z,41.10
2019-04-01T22:43:31.672Z,41.10
2019-04-01T22:48:24.461Z,41.10
2019-04-01T22:50:50.887Z,41.10
2019-04-01T22:53:17.052Z,41.10
2019-04-01T23:10:22.356Z,41.00
2019-04-01T23:17:43.800Z,41.00
2019-04-01T23:22:36.400Z,41.00
2019-04-01T23:27:30.160Z,41.10
2019-04-01T23:29:56.644Z,41.00
2019-04-01T23:34:49.142Z,41.00
2019-04-01T23:37:15.188Z,41.10
2019-04-01T23:39:41.271Z,41.00
2019-04-01T23:44:34.177Z,41.00
2019-04-01T23:47:00.229Z,41.00
2019-04-01T23:51:53.024Z,41.00
2019-04-01T23:54:19.435Z,41.00
2019-04-01T23:56:45.505Z,41.00
2019-04-01T23:59:11.552Z,40.90
